createdAt,value
2019-05-18T00:01:44.217Z,99440
2019-05-18T00:04:13.040Z,99440
2019-05-18T00:06:41.876Z,99443
2019-05-18T00:09:10.721Z,99440
2019-05-18T00:11:39.573Z,99444
2019-05-18T00:14:08.423Z,99446
2019-05-18T00:16:38.000Z,99444
2019-05-18T00:19:06.842Z,99442
2019-05-18T00:21:35.670Z,99438
2019-05-18T00:24:04.495Z,99438
2019-05-18T00:26:34.093Z,99437
2019-05-18T00:29:03.762Z,99429
2019-05-18T00:31:32.624Z,99427
2019-05-18T00:34:01.470Z,99427
2019-05-18T00:36:30.310Z,99424
2019-05-18T00:38:59.169Z,99429
2019-05-18T00:41:28.752Z,99426
2019-05-18T00:43:57.591Z,99428
2019-05-18T00:46:26.453Z,99422
2019-05-18T00:48:55.264Z,99423
2019-05-18T00:51:24.100Z,99420
2019-05-18T00:53:52.949Z,99414
2019-05-18T00:56:21.783Z,99413
2019-05-18T00:58:50.626Z,99416
2019-05-18T01:01:19.458Z,99414
2019-05-18T01:03:48.323Z,99420
2019-05-18T01:06:17.142Z,99419
2019-05-18T01:08:45.972Z,99421
2019-05-18T01:11:14.820Z,99423
2019-05-18T01:13:43.650Z,99423
2019-05-18T01:16:12.485Z,99422
2019-05-18T01:18:41.317Z,99419
2019-05-18T01:21:10.191Z,99422
2019-05-18T01:23:39.780Z,99411
2019-05-18T01:26:08.672Z,99413
2019-05-18T01:28:37.473Z,99417
2019-05-18T01:31:06.298Z,99424
2019-05-18T01:33:35.143Z,99411
2019-05-18T01:36:03.980Z,99409
2019-05-18T01:38:32.818Z,99414
2019-05-18T01:41:01.702Z,99406
2019-05-18T01:43:31.313Z,99405
2019-05-18T01:46:00.179Z,99402
2019-05-18T01:48:29.601Z,99401
2019-05-18T01:50:59.193Z,99402
2019-05-18T01:53:28.052Z,99391
2019-05-18T01:55:56.881Z,99397
2019-05-18T01:58:26.553Z,99393
2019-05-18T02:00:55.397Z,99385
2019-05-18T02:03:25.968Z,99388
2019-05-18T02:05:53.128Z,99387
2019-05-18T02:08:21.961Z,99388
2019-05-18T02:10:50.798Z,99387
2019-05-18T02:13:19.642Z,99396
2019-05-18T02:15:48.475Z,99387
2019-05-18T02:18:28.854Z,99390
2019-05-18T02:20:46.171Z,99395
2019-05-18T02:23:14.988Z,99398
2019-05-18T02:25:43.851Z,99393
2019-05-18T02:28:12.723Z,99388
2019-05-18T02:30:41.544Z,99388
2019-05-18T02:33:11.119Z,99392
2019-05-18T02:35:39.994Z,99388
2019-05-18T02:38:14.419Z,99389
2019-05-18T02:40:43.262Z,99391
2019-05-18T02:43:12.837Z,99378
2019-05-18T02:45:42.432Z,99385
2019-05-18T02:48:11.270Z,99379
2019-05-18T02:50:40.114Z,99376
2019-05-18T02:53:08.940Z,99373
2019-05-18T02:55:38.525Z,99376
2019-05-18T02:58:19.873Z,99382
2019-05-18T03:00:49.449Z,99387
2019-05-18T03:03:18.265Z,99386
2019-05-18T03:05:47.112Z,99391
2019-05-18T03:08:16.697Z,99390
2019-05-18T03:10:45.538Z,99389
2019-05-18T03:13:14.383Z,99391
2019-05-18T03:15:44.000Z,99389
2019-05-18T03:18:13.572Z,99392
2019-05-18T03:20:42.412Z,99386
2019-05-18T03:23:11.253Z,99391
2019-05-18T03:25:40.083Z,99387
2019-05-18T03:28:08.917Z,99381
2019-05-18T03:30:37.765Z,99380
2019-05-18T03:33:06.586Z,99384
2019-05-18T03:35:35.415Z,99388
2019-05-18T03:38:05.009Z,99385
2019-05-18T03:40:33.889Z,99387
2019-05-18T03:43:02.718Z,99393
2019-05-18T03:45:32.315Z,99392
2019-05-18T03:48:01.740Z,99391
2019-05-18T03:50:30.578Z,99394
2019-05-18T03:52:59.439Z,99387
2019-05-18T03:55:28.277Z,99394
2019-05-18T03:57:57.850Z,99393
2019-05-18T04:00:26.684Z,99400
2019-05-18T04:02:56.263Z,99392
2019-05-18T04:05:25.085Z,99445
2019-05-18T04:07:53.942Z,99400
2019-05-18T04:10:24.605Z,99401
2019-05-18T04:12:53.430Z,99400
2019-05-18T04:15:22.267Z,99403
2019-05-18T04:17:51.878Z,99401
2019-05-18T04:20:21.460Z,99410
2019-05-18T04:22:50.319Z,99407
2019-05-18T04:25:19.150Z,99406
2019-05-18T04:27:48.012Z,99410
2019-05-18T04:30:16.852Z,99418
2019-05-18T04:32:45.755Z,99416
2019-05-18T04:35:14.515Z,99417
2019-05-18T04:37:43.353Z,99405
2019-05-18T04:40:12.916Z,99407
2019-05-18T04:42:41.771Z,99412
2019-05-18T04:45:10.592Z,99403
2019-05-18T04:47:40.180Z,99397
2019-05-18T04:50:09.032Z,99408
2019-05-18T04:52:37.879Z,99413
2019-05-18T04:55:06.687Z,99409
2019-05-18T04:57:35.533Z,99413
2019-05-18T05:00:05.141Z,99415
2019-05-18T05:02:33.999Z,99412
2019-05-18T05:05:02.833Z,99415
2019-05-18T05:07:32.620Z,99416
2019-05-18T05:10:04.513Z,99421
2019-05-18T05:12:29.822Z,99423
2019-05-18T05:14:59.418Z,99426
2019-05-18T05:17:29.071Z,99433
2019-05-18T05:19:57.895Z,99430
2019-05-18T05:22:26.741Z,99424
2019-05-18T05:24:56.301Z,99425
2019-05-18T05:27:25.142Z,99431
2019-05-18T05:29:53.979Z,99425
2019-05-18T05:32:22.823Z,99408
2019-05-18T05:34:51.660Z,99424
2019-05-18T05:37:20.523Z,99427
2019-05-18T05:39:49.363Z,99424
2019-05-18T05:42:18.215Z,99432
2019-05-18T05:44:47.068Z,99439
2019-05-18T05:47:15.890Z,99434
2019-05-18T05:49:44.715Z,99430
2019-05-18T05:52:13.553Z,99439
2019-05-18T05:54:42.501Z,99435
2019-05-18T05:57:11.285Z,99433
2019-05-18T05:59:40.162Z,99438
2019-05-18T06:02:09.740Z,99438
2019-05-18T06:04:38.640Z,99437
2019-05-18T06:07:07.485Z,99446
2019-05-18T06:09:36.343Z,99450
2019-05-18T06:12:05.926Z,99450
2019-05-18T06:14:34.768Z,99440
2019-05-18T06:17:09.578Z,99450
2019-05-18T06:19:38.491Z,99442
2019-05-18T06:22:07.331Z,99435
2019-05-18T06:24:36.174Z,99458
2019-05-18T06:27:05.020Z,99448
2019-05-18T06:29:33.875Z,99448
2019-05-18T06:32:02.705Z,99450
2019-05-18T06:34:32.280Z,99446
2019-05-18T06:37:01.128Z,99464
2019-05-18T06:39:30.014Z,99450
2019-05-18T06:41:58.849Z,99455
2019-05-18T06:44:27.685Z,99453
2019-05-18T06:46:56.543Z,99462
2019-05-18T06:49:25.413Z,99458
2019-05-18T06:51:54.256Z,99462
2019-05-18T06:54:23.111Z,99462
2019-05-18T06:56:51.957Z,99462
2019-05-18T06:59:20.789Z,99464
2019-05-18T07:01:49.663Z,99466
2019-05-18T07:04:18.495Z,99464
2019-05-18T07:06:47.374Z,99461
2019-05-18T07:09:16.200Z,99460
2019-05-18T07:11:45.047Z,99465
2019-05-18T07:14:25.175Z,99464
2019-05-18T07:16:43.451Z,99467
2019-05-18T07:19:12.295Z,99462
2019-05-18T07:21:41.141Z,99468
2019-05-18T07:24:09.970Z,99458
2019-05-18T07:26:38.813Z,99469
2019-05-18T07:29:07.667Z,99468
2019-05-18T07:31:36.523Z,99464
2019-05-18T07:34:05.357Z,99465
2019-05-18T07:36:34.212Z,99454
2019-05-18T07:39:03.062Z,99458
2019-05-18T07:41:45.911Z,99465
2019-05-18T07:44:01.465Z,99455
2019-05-18T07:46:30.399Z,99462
2019-05-18T07:48:59.212Z,99458
2019-05-18T07:51:36.649Z,99455
2019-05-18T07:53:57.690Z,99455
2019-05-18T07:56:26.556Z,99460
2019-05-18T07:58:55.407Z,99457
2019-05-18T08:01:24.267Z,99459
2019-05-18T08:03:53.119Z,99454
2019-05-18T08:06:21.971Z,99452
2019-05-18T08:08:51.570Z,99451
2019-05-18T08:11:21.151Z,99463
2019-05-18T08:13:50.004Z,99460
2019-05-18T08:16:18.841Z,99462
2019-05-18T08:18:47.722Z,99455
2019-05-18T08:21:16.517Z,99452
2019-05-18T08:23:45.420Z,99456
2019-05-18T08:26:14.201Z,99453
2019-05-18T08:28:43.787Z,99455
2019-05-18T08:31:12.657Z,99456
2019-05-18T08:33:41.521Z,99459
2019-05-18T08:36:10.362Z,99453
2019-05-18T08:38:40.031Z,99455
2019-05-18T08:41:08.786Z,99458
2019-05-18T08:43:38.411Z,99450
2019-05-18T08:46:07.953Z,99452
2019-05-18T08:48:36.792Z,99439
2019-05-18T08:51:06.386Z,99443
2019-05-18T08:53:35.966Z,99443
2019-05-18T08:56:04.818Z,99450
2019-05-18T08:58:33.665Z,99451
2019-05-18T09:01:02.527Z,99452
2019-05-18T09:03:31.367Z,99447
2019-05-18T09:06:00.251Z,99446
2019-05-18T09:08:29.134Z,99451
2019-05-18T09:10:57.918Z,99450
2019-05-18T09:13:27.509Z,99454
2019-05-18T09:15:56.372Z,99452
2019-05-18T09:18:25.204Z,99450
2019-05-18T09:20:54.057Z,99453
2019-05-18T09:23:22.894Z,99447
2019-05-18T09:25:53.321Z,99445
2019-05-18T09:28:22.174Z,99443
2019-05-18T09:30:51.010Z,99454
2019-05-18T09:33:19.869Z,99438
2019-05-18T09:35:48.710Z,99435
2019-05-18T09:38:17.658Z,99433
2019-05-18T09:40:46.439Z,99433
2019-05-18T09:43:16.066Z,99435
2019-05-18T09:45:44.879Z,99434
2019-05-18T09:48:13.716Z,99438
2019-05-18T09:50:42.582Z,99432
2019-05-18T09:55:51.324Z,99450
2019-05-18T09:58:20.143Z,99432
2019-05-18T10:00:49.020Z,99424
2019-05-18T10:03:17.868Z,99424
2019-05-18T10:05:46.735Z,99426
2019-05-18T10:08:15.596Z,99418
2019-05-18T10:10:44.450Z,99416
2019-05-18T10:13:13.305Z,99419
2019-05-18T10:15:42.186Z,99420
2019-05-18T10:18:11.001Z,99420
2019-05-18T10:20:39.846Z,99421
2019-05-18T10:23:12.829Z,99415
2019-05-18T10:25:37.579Z,99421
2019-05-18T10:28:06.388Z,99421
2019-05-18T10:30:35.229Z,99421
2019-05-18T10:33:04.120Z,99421
2019-05-18T10:35:32.953Z,99421
2019-05-18T10:38:01.822Z,99416
2019-05-18T10:40:31.412Z,99414
2019-05-18T10:43:00.276Z,99414
2019-05-18T10:45:29.104Z,99412
2019-05-18T10:47:58.743Z,99415
2019-05-18T10:50:28.339Z,99411
2019-05-18T10:52:57.204Z,99418
2019-05-18T10:55:26.962Z,99406
2019-05-18T10:57:55.650Z,99402
2019-05-18T11:00:24.496Z,99399
2019-05-18T11:02:54.065Z,99396
2019-05-18T11:05:22.919Z,99407
2019-05-18T11:07:51.780Z,99393
2019-05-18T11:10:20.624Z,99401
2019-05-18T11:12:49.487Z,99398
2019-05-18T11:15:18.385Z,99397
2019-05-18T11:17:47.199Z,99401
2019-05-18T11:20:16.061Z,99408
2019-05-18T11:22:44.898Z,99388
2019-05-18T11:25:13.740Z,99385
2019-05-18T11:27:42.575Z,99381
2019-05-18T11:30:11.595Z,99387
2019-05-18T11:32:41.076Z,99380
2019-05-18T11:35:09.939Z,99375
2019-05-18T11:37:38.767Z,99379
2019-05-18T11:40:08.361Z,99375
2019-05-18T11:42:37.194Z,99370
2019-05-18T11:45:06.947Z,99374
2019-05-18T11:47:35.781Z,99377
2019-05-18T11:50:06.579Z,99376
2019-05-18T11:52:35.432Z,99367
2019-05-18T11:55:04.308Z,99371
2019-05-18T11:57:33.862Z,99369
2019-05-18T12:00:03.330Z,99364
2019-05-18T12:02:32.182Z,99359
2019-05-18T12:05:01.036Z,99354
2019-05-18T12:07:29.878Z,99354
2019-05-18T12:09:58.715Z,99348
2019-05-18T12:12:27.596Z,99347
2019-05-18T12:14:56.412Z,99345
2019-05-18T12:17:25.261Z,99345
2019-05-18T12:19:54.112Z,99348
2019-05-18T12:22:22.162Z,99342
2019-05-18T12:24:51.775Z,99340
2019-05-18T12:27:20.623Z,99339
2019-05-18T12:29:49.461Z,99343
2019-05-18T12:32:18.310Z,99340
2019-05-18T12:34:47.148Z,99339
2019-05-18T12:37:20.991Z,99345
2019-05-18T12:39:49.836Z,99333
2019-05-18T12:42:18.675Z,99335
2019-05-18T12:44:47.504Z,99334
2019-05-18T12:47:17.116Z,99332
2019-05-18T12:49:45.950Z,99320
2019-05-18T12:52:14.798Z,99320
2019-05-18T12:54:46.458Z,99323
2019-05-18T12:57:13.262Z,99317
2019-05-18T12:59:42.086Z,99311
2019-05-18T13:02:10.941Z,99310
2019-05-18T13:04:41.868Z,99310
2019-05-18T13:07:08.656Z,99307
2019-05-18T13:09:37.530Z,99306
2019-05-18T13:12:07.114Z,99307
2019-05-18T13:14:35.995Z,99315
2019-05-18T13:17:04.818Z,99307
2019-05-18T13:19:34.384Z,99294
2019-05-18T13:22:03.254Z,99329
2019-05-18T13:24:44.383Z,99294
2019-05-18T13:27:00.938Z,99293
2019-05-18T13:29:30.529Z,99288
2019-05-18T13:31:59.364Z,99291
2019-05-18T13:34:28.208Z,99291
2019-05-18T13:36:57.069Z,99288
2019-05-18T13:39:26.662Z,99287
2019-05-18T13:41:55.498Z,99289
2019-05-18T13:44:24.376Z,99281
2019-05-18T13:46:53.221Z,99271
2019-05-18T13:49:22.064Z,99275
2019-05-18T13:51:50.904Z,99282
2019-05-18T13:54:19.754Z,99283
2019-05-18T13:56:48.618Z,99271
2019-05-18T13:59:17.472Z,99266
2019-05-18T14:01:47.065Z,99271
2019-05-18T14:04:15.917Z,99268
2019-05-18T14:06:44.768Z,99270
2019-05-18T14:09:13.598Z,99270
2019-05-18T14:11:42.458Z,99261
2019-05-18T14:14:11.289Z,99260
2019-05-18T14:16:40.105Z,99254
2019-05-18T14:19:09.537Z,99266
2019-05-18T14:21:38.383Z,99261
2019-05-18T14:24:07.240Z,99255
2019-05-18T14:26:36.095Z,99258
2019-05-18T14:29:05.667Z,99255
2019-05-18T14:31:34.521Z,99255
2019-05-18T14:34:03.378Z,99248
2019-05-18T14:36:33.004Z,99260
2019-05-18T14:39:01.835Z,99256
2019-05-18T14:41:30.676Z,99257
2019-05-18T14:43:59.534Z,99251
2019-05-18T14:46:28.384Z,99251
2019-05-18T14:48:57.234Z,99254
2019-05-18T14:51:26.818Z,99259
2019-05-18T14:53:56.254Z,99257
2019-05-18T14:56:25.108Z,99287
2019-05-18T14:58:53.961Z,99259
2019-05-18T15:01:22.804Z,99259
2019-05-18T15:03:52.387Z,99249
2019-05-18T15:06:21.238Z,99256
2019-05-18T15:08:50.113Z,99261
2019-05-18T15:11:18.930Z,99263
2019-05-18T15:13:47.781Z,99264
2019-05-18T15:16:17.382Z,99259
2019-05-18T15:18:46.992Z,99268
2019-05-18T15:21:16.585Z,99267
2019-05-18T15:23:46.195Z,99277
2019-05-18T15:26:15.836Z,99285
2019-05-18T15:28:44.624Z,99288
2019-05-18T15:31:13.474Z,99277
2019-05-18T15:33:42.320Z,99278
2019-05-18T15:36:11.175Z,99278
2019-05-18T15:38:40.025Z,99271
2019-05-18T15:41:08.877Z,99271
2019-05-18T15:43:37.727Z,99272
2019-05-18T15:46:07.387Z,99270
2019-05-18T15:48:36.271Z,99269
2019-05-18T15:51:05.048Z,99282
2019-05-18T15:53:33.924Z,99261
2019-05-18T15:56:06.163Z,99266
2019-05-18T15:58:32.347Z,99266
2019-05-18T16:01:01.184Z,99271
2019-05-18T16:03:30.755Z,99271
2019-05-18T16:05:59.628Z,99273
2019-05-18T16:08:28.460Z,99276
2019-05-18T16:10:57.368Z,99259
2019-05-18T16:13:26.179Z,99289
2019-05-18T16:18:24.877Z,99294
2019-05-18T16:20:53.715Z,99300
2019-05-18T16:23:22.565Z,99310
2019-05-18T16:25:51.405Z,99316
2019-05-18T16:28:20.249Z,99312
2019-05-18T16:30:49.079Z,99309
2019-05-18T16:33:18.028Z,99306
2019-05-18T16:35:47.582Z,99312
2019-05-18T16:38:16.413Z,99310
2019-05-18T16:40:45.258Z,99309
2019-05-18T16:43:14.117Z,99308
2019-05-18T16:45:42.939Z,99323
2019-05-18T16:48:12.571Z,99317
2019-05-18T16:50:41.413Z,99320
2019-05-18T16:53:10.209Z,99322
2019-05-18T16:55:39.662Z,99323
2019-05-18T16:58:08.514Z,99317
2019-05-18T17:00:38.104Z,99330
2019-05-18T17:03:06.990Z,99329
2019-05-18T17:05:35.807Z,99327
2019-05-18T17:08:05.382Z,99327
2019-05-18T17:10:34.219Z,99322
2019-05-18T17:13:03.076Z,99325
2019-05-18T17:15:31.907Z,99317
2019-05-18T17:18:00.810Z,99317
2019-05-18T17:20:29.600Z,99321
2019-05-18T17:22:58.444Z,99332
2019-05-18T17:25:28.034Z,99335
2019-05-18T17:27:56.892Z,99336
2019-05-18T17:30:25.789Z,99338
2019-05-18T17:32:55.327Z,99343
2019-05-18T17:35:24.195Z,99336
2019-05-18T17:37:53.036Z,99343
2019-05-18T17:40:22.637Z,99340
2019-05-18T17:42:51.572Z,99344
2019-05-18T17:45:20.464Z,99345
2019-05-18T17:47:49.296Z,99340
2019-05-18T17:50:18.872Z,99345
2019-05-18T17:52:47.723Z,99360
2019-05-18T17:55:16.748Z,99358
2019-05-18T17:57:45.436Z,99358
2019-05-18T18:00:14.274Z,99371
2019-05-18T18:02:43.870Z,99364
2019-05-18T18:05:13.466Z,99365
2019-05-18T18:07:42.888Z,99356
2019-05-18T18:10:11.745Z,99359
2019-05-18T18:12:40.575Z,99362
2019-05-18T18:15:09.453Z,99373
2019-05-18T18:17:38.299Z,99383
2019-05-18T18:20:07.147Z,99389
2019-05-18T18:22:35.984Z,99394
2019-05-18T18:25:04.842Z,99409
2019-05-18T18:27:33.710Z,99419
2019-05-18T18:30:02.605Z,99425
2019-05-18T18:32:31.432Z,99437
2019-05-18T18:35:00.278Z,99450
2019-05-18T18:37:29.148Z,99451
2019-05-18T18:39:57.985Z,99471
2019-05-18T18:42:26.849Z,99463
2019-05-18T18:44:55.713Z,99463
2019-05-18T18:47:24.532Z,99461
2019-05-18T18:49:53.380Z,99460
2019-05-18T18:52:22.210Z,99464
2019-05-18T18:54:51.061Z,99454
2019-05-18T18:57:20.504Z,99475
2019-05-18T18:59:49.333Z,99461
2019-05-18T19:02:18.177Z,99471
2019-05-18T19:04:47.934Z,99467
2019-05-18T19:07:16.630Z,99461
2019-05-18T19:09:46.087Z,99458
2019-05-18T19:12:14.914Z,99456
2019-05-18T19:14:43.770Z,99449
2019-05-18T19:17:12.593Z,99446
2019-05-18T19:19:41.420Z,99447
2019-05-18T19:22:10.303Z,99448
2019-05-18T19:24:39.093Z,99437
2019-05-18T19:27:07.976Z,99436
2019-05-18T19:29:36.800Z,99438
2019-05-18T19:32:05.692Z,99437
2019-05-18T19:34:34.536Z,99436
2019-05-18T19:37:04.182Z,99432
2019-05-18T19:39:33.757Z,99432
2019-05-18T19:42:02.616Z,99422
2019-05-18T19:44:31.467Z,99428
2019-05-18T19:47:00.308Z,99433
2019-05-18T19:49:29.206Z,99428
2019-05-18T19:51:58.070Z,99428
2019-05-18T19:54:26.907Z,99436
2019-05-18T19:56:55.785Z,99434
2019-05-18T19:59:25.360Z,99441
2019-05-18T20:01:54.216Z,99440
2019-05-18T20:04:23.080Z,99441
2019-05-18T20:06:51.956Z,99445
2019-05-18T20:09:21.555Z,99449
2019-05-18T20:11:51.006Z,99458
2019-05-18T20:14:19.838Z,99447
2019-05-18T20:16:48.784Z,99452
2019-05-18T20:19:17.566Z,99444
2019-05-18T20:21:46.436Z,99452
2019-05-18T20:24:15.313Z,99453
2019-05-18T20:26:44.737Z,99459
2019-05-18T20:29:13.614Z,99463
2019-05-18T20:31:42.429Z,99459
2019-05-18T20:34:11.290Z,99457
2019-05-18T20:36:40.917Z,99454
2019-05-18T20:39:09.726Z,99467
2019-05-18T20:41:38.573Z,99465
2019-05-18T20:44:07.426Z,99463
2019-05-18T20:46:36.263Z,99461
2019-05-18T20:49:05.160Z,99456
2019-05-18T20:51:34.018Z,99459
2019-05-18T20:54:02.881Z,99457
2019-05-18T20:56:31.700Z,99460
2019-05-18T20:59:01.351Z,99457
2019-05-18T21:01:30.892Z,99452
2019-05-18T21:03:59.726Z,99460
2019-05-18T21:06:28.561Z,99453
2019-05-18T21:08:57.522Z,99447
2019-05-18T21:11:26.299Z,99459
2019-05-18T21:13:57.633Z,99459
2019-05-18T21:16:24.022Z,99452
2019-05-18T21:18:52.893Z,99452
2019-05-18T21:21:25.604Z,99445
2019-05-18T21:23:50.633Z,99449
2019-05-18T21:26:19.489Z,99453
2019-05-18T21:28:56.389Z,99460
2019-05-18T21:31:17.799Z,99448
2019-05-18T21:33:47.377Z,99445
2019-05-18T21:36:16.303Z,99449
2019-05-18T21:38:45.892Z,99447
2019-05-18T21:41:14.749Z,99443
2019-05-18T21:43:43.597Z,99445
2019-05-18T21:46:13.173Z,99445
2019-05-18T21:48:42.015Z,99442
2019-05-18T21:51:10.844Z,99440
2019-05-18T21:53:39.685Z,99441
2019-05-18T21:56:08.523Z,99432
2019-05-18T21:58:37.336Z,99434
2019-05-18T22:01:06.931Z,99430
2019-05-18T22:03:35.771Z,99436
2019-05-18T22:06:04.620Z,99432
2019-05-18T22:08:33.450Z,99416
2019-05-18T22:11:02.299Z,99427
2019-05-18T22:13:31.914Z,99426
2019-05-18T22:16:00.784Z,99424
2019-05-18T22:18:29.602Z,99426
2019-05-18T22:20:58.448Z,99420
2019-05-18T22:23:27.304Z,99417
2019-05-18T22:25:57.100Z,99416
2019-05-18T22:28:25.738Z,99418
2019-05-18T22:30:54.634Z,99412
2019-05-18T22:33:23.440Z,99413
2019-05-18T22:35:53.059Z,99412
2019-05-18T22:38:21.877Z,99408
2019-05-18T22:40:50.710Z,99409
2019-05-18T22:43:19.562Z,99407
2019-05-18T22:45:48.604Z,99406
2019-05-18T22:48:17.251Z,99397
2019-05-18T22:50:46.075Z,99405
2019-05-18T22:53:15.652Z,99415
2019-05-18T22:55:44.496Z,99398
2019-05-18T22:58:13.328Z,99403
2019-05-18T23:00:42.177Z,99402
2019-05-18T23:03:11.000Z,99406
2019-05-18T23:05:39.855Z,99395
2019-05-18T23:08:08.695Z,99387
2019-05-18T23:10:38.131Z,99390
2019-05-18T23:13:07.707Z,99392
2019-05-18T23:15:36.552Z,99387
2019-05-18T23:18:05.401Z,99383
2019-05-18T23:20:35.016Z,99386
2019-05-18T23:23:03.814Z,99379
2019-05-18T23:25:32.641Z,99379
2019-05-18T23:28:01.467Z,99375
2019-05-18T23:30:30.313Z,99367
2019-05-18T23:32:59.153Z,99372
2019-05-18T23:35:28.740Z,99372
2019-05-18T23:37:57.565Z,99375
2019-05-18T23:40:26.407Z,99369
2019-05-18T23:42:55.266Z,99377
2019-05-18T23:45:24.098Z,99369
2019-05-18T23:47:52.927Z,99386
2019-05-18T23:50:21.767Z,99371
2019-05-18T23:52:50.742Z,99366
2019-05-18T23:55:19.454Z,99361
2019-05-18T23:57:48.305Z,99364
